sensor_id;sensor_type;location;lat;lon;timestamp;P1;durP1;ratioP1;P2;durP2;ratioP2
84905;SDS011;75170;42.116;21.740;2024-01-06T00:01:44;41.53;;;24.77;;
84905;SDS011;75170;42.116;21.740;2024-01-06T00:04:10;102.85;;;58.88;;
84905;SDS011;75170;42.116;21.740;2024-01-06T00:06:36;106.95;;;64.75;;
84905;SDS011;75170;42.116;21.740;2024-01-06T00:09:02;91.85;;;55.42;;
84905;SDS011;75170;42.116;21.740;2024-01-06T00:11:28;89.57;;;50.03;;
84905;SDS011;75170;42.116;21.740;2024-01-06T00:13:54;75.45;;;44.05;;
84905;SDS011;75170;42.116;21.740;2024-01-06T00:16:20;78.95;;;47.53;;
84905;SDS011;75170;42.116;21.740;2024-01-06T00:18:47;134.40;;;76.55;;
84905;SDS011;75170;42.116;21.740;2024-01-06T00:21:13;128.85;;;75.80;;
84905;SDS011;75170;42.116;21.740;2024-01-06T00:23:40;122.35;;;75.45;;
84905;SDS011;75170;42.116;21.740;2024-01-06T00:26:06;122.95;;;72.13;;
84905;SDS011;75170;42.116;21.740;2024-01-06T00:28:32;127.47;;;75.03;;
84905;SDS011;75170;42.116;21.740;2024-01-06T00:30:58;142.15;;;82.75;;
84905;SDS011;75170;42.116;21.740;2024-01-06T00:33:24;135.55;;;78.65;;
84905;SDS011;75170;42.116;21.740;2024-01-06T00:35:50;143.07;;;83.35;;
84905;SDS011;75170;42.116;21.740;2024-01-06T00:38:17;133.80;;;80.55;;
84905;SDS011;75170;42.116;21.740;2024-01-06T00:40:45;135.35;;;80.65;;
84905;SDS011;75170;42.116;21.740;2024-01-06T00:43:11;165.95;;;96.80;;
84905;SDS011;75170;42.116;21.740;2024-01-06T00:45:37;139.57;;;81.72;;
84905;SDS011;75170;42.116;21.740;2024-01-06T00:48:04;138.38;;;81.18;;
84905;SDS011;75170;42.116;21.740;2024-01-06T00:50:30;132.63;;;80.03;;
84905;SDS011;75170;42.116;21.740;2024-01-06T00:52:56;138.75;;;79.72;;
84905;SDS011;75170;42.116;21.740;2024-01-06T00:55:22;125.15;;;76.03;;
84905;SDS011;75170;42.116;21.740;2024-01-06T00:57:49;124.25;;;75.68;;
84905;SDS011;75170;42.116;21.740;2024-01-06T01:00:15;108.80;;;64.80;;
84905;SDS011;75170;42.116;21.740;2024-01-06T01:02:41;107.75;;;64.70;;
84905;SDS011;75170;42.116;21.740;2024-01-06T01:05:08;91.53;;;52.80;;
84905;SDS011;75170;42.116;21.740;2024-01-06T01:07:34;124.18;;;72.53;;
84905;SDS011;75170;42.116;21.740;2024-01-06T01:10:00;118.28;;;69.35;;
84905;SDS011;75170;42.116;21.740;2024-01-06T01:12:26;151.68;;;89.22;;
84905;SDS011;75170;42.116;21.740;2024-01-06T01:14:53;195.48;;;110.35;;
84905;SDS011;75170;42.116;21.740;2024-01-06T01:17:19;180.23;;;103.03;;
84905;SDS011;75170;42.116;21.740;2024-01-06T01:19:45;301.90;;;140.43;;
84905;SDS011;75170;42.116;21.740;2024-01-06T01:22:11;267.27;;;142.35;;
84905;SDS011;75170;42.116;21.740;2024-01-06T01:24:38;296.90;;;153.68;;
84905;SDS011;75170;42.116;21.740;2024-01-06T01:27:04;253.38;;;139.68;;
84905;SDS011;75170;42.116;21.740;2024-01-06T01:29:30;261.17;;;141.23;;
84905;SDS011;75170;42.116;21.740;2024-01-06T01:31:57;247.60;;;135.73;;
84905;SDS011;75170;42.116;21.740;2024-01-06T01:34:23;256.15;;;142.55;;
84905;SDS011;75170;42.116;21.740;2024-01-06T01:36:49;232.23;;;129.90;;
84905;SDS011;75170;42.116;21.740;2024-01-06T01:39:16;214.18;;;122.07;;
84905;SDS011;75170;42.116;21.740;2024-01-06T01:41:42;209.52;;;122.10;;
84905;SDS011;75170;42.116;21.740;2024-01-06T01:44:08;220.02;;;125.57;;
84905;SDS011;75170;42.116;21.740;2024-01-06T01:46:34;219.13;;;125.45;;
84905;SDS011;75170;42.116;21.740;2024-01-06T01:49:01;238.07;;;136.63;;
84905;SDS011;75170;42.116;21.740;2024-01-06T01:51:33;249.30;;;140.15;;
84905;SDS011;75170;42.116;21.740;2024-01-06T01:54:01;221.73;;;127.57;;
84905;SDS011;75170;42.116;21.740;2024-01-06T01:56:27;241.27;;;141.55;;
84905;SDS011;75170;42.116;21.740;2024-01-06T01:58:54;201.38;;;118.97;;
84905;SDS011;75170;42.116;21.740;2024-01-06T02:01:21;195.57;;;112.03;;
84905;SDS011;75170;42.116;21.740;2024-01-06T02:03:47;161.73;;;94.00;;
84905;SDS011;75170;42.116;21.740;2024-01-06T02:06:13;168.25;;;99.60;;
84905;SDS011;75170;42.116;21.740;2024-01-06T02:08:39;157.90;;;91.45;;
84905;SDS011;75170;42.116;21.740;2024-01-06T02:11:05;162.88;;;96.20;;
84905;SDS011;75170;42.116;21.740;2024-01-06T02:13:35;163.80;;;95.80;;
84905;SDS011;75170;42.116;21.740;2024-01-06T02:16:04;158.95;;;91.97;;
84905;SDS011;75170;42.116;21.740;2024-01-06T02:18:31;179.13;;;103.90;;
84905;SDS011;75170;42.116;21.740;2024-01-06T02:20:57;164.90;;;96.80;;
84905;SDS011;75170;42.116;21.740;2024-01-06T02:23:24;187.57;;;104.88;;
84905;SDS011;75170;42.116;21.740;2024-01-06T02:25:50;188.45;;;105.70;;
84905;SDS011;75170;42.116;21.740;2024-01-06T02:28:16;206.00;;;117.05;;
84905;SDS011;75170;42.116;21.740;2024-01-06T02:30:43;190.13;;;108.28;;
84905;SDS011;75170;42.116;21.740;2024-01-06T02:33:09;192.70;;;111.25;;
84905;SDS011;75170;42.116;21.740;2024-01-06T02:35:35;198.32;;;109.90;;
84905;SDS011;75170;42.116;21.740;2024-01-06T02:38:01;193.55;;;109.50;;
84905;SDS011;75170;42.116;21.740;2024-01-06T02:40:27;159.10;;;89.47;;
84905;SDS011;75170;42.116;21.740;2024-01-06T02:42:54;173.82;;;101.03;;
84905;SDS011;75170;42.116;21.740;2024-01-06T02:45:20;191.10;;;110.15;;
84905;SDS011;75170;42.116;21.740;2024-01-06T02:47:46;202.05;;;111.55;;
84905;SDS011;75170;42.116;21.740;2024-01-06T02:50:12;182.25;;;104.82;;
84905;SDS011;75170;42.116;21.740;2024-01-06T02:52:38;182.05;;;103.15;;
84905;SDS011;75170;42.116;21.740;2024-01-06T02:55:04;194.98;;;112.07;;
84905;SDS011;75170;42.116;21.740;2024-01-06T02:57:31;175.80;;;103.78;;
84905;SDS011;75170;42.116;21.740;2024-01-06T02:59:57;183.57;;;106.35;;
84905;SDS011;75170;42.116;21.740;2024-01-06T03:02:23;183.25;;;103.10;;
84905;SDS011;75170;42.116;21.740;2024-01-06T03:04:49;179.57;;;107.68;;
84905;SDS011;75170;42.116;21.740;2024-01-06T03:07:15;162.32;;;96.75;;
84905;SDS011;75170;42.116;21.740;2024-01-06T03:09:41;180.70;;;107.00;;
84905;SDS011;75170;42.116;21.740;2024-01-06T03:12:08;173.90;;;99.63;;
84905;SDS011;75170;42.116;21.740;2024-01-06T03:14:34;185.70;;;107.75;;
84905;SDS011;75170;42.116;21.740;2024-01-06T03:17:01;174.75;;;105.30;;
84905;SDS011;75170;42.116;21.740;2024-01-06T03:19:28;189.93;;;107.80;;
84905;SDS011;75170;42.116;21.740;2024-01-06T03:21:54;180.82;;;104.28;;
84905;SDS011;75170;42.116;21.740;2024-01-06T03:24:23;150.27;;;88.63;;
84905;SDS011;75170;42.116;21.740;2024-01-06T03:26:50;146.35;;;82.95;;
84905;SDS011;75170;42.116;21.740;2024-01-06T03:29:16;135.60;;;80.38;;
84905;SDS011;75170;42.116;21.740;2024-01-06T03:31:42;151.82;;;85.82;;
84905;SDS011;75170;42.116;21.740;2024-01-06T03:34:09;158.38;;;91.82;;
84905;SDS011;75170;42.116;21.740;2024-01-06T03:36:38;160.20;;;92.97;;
84905;SDS011;75170;42.116;21.740;2024-01-06T03:39:04;151.18;;;86.28;;
84905;SDS011;75170;42.116;21.740;2024-01-06T03:41:31;159.57;;;90.05;;
84905;SDS011;75170;42.116;21.740;2024-01-06T03:43:57;146.27;;;83.78;;
84905;SDS011;75170;42.116;21.740;2024-01-06T03:46:23;130.98;;;74.45;;
84905;SDS011;75170;42.116;21.740;2024-01-06T03:48:50;118.95;;;69.25;;
84905;SDS011;75170;42.116;21.740;2024-01-06T03:51:16;130.05;;;75.45;;
84905;SDS011;75170;42.116;21.740;2024-01-06T03:53:42;166.68;;;93.20;;
84905;SDS011;75170;42.116;21.740;2024-01-06T03:56:08;191.23;;;105.07;;
84905;SDS011;75170;42.116;21.740;2024-01-06T03:58:34;193.30;;;103.43;;
84905;SDS011;75170;42.116;21.740;2024-01-06T04:01:00;161.93;;;91.18;;
84905;SDS011;75170;42.116;21.740;2024-01-06T04:03:26;157.25;;;84.90;;
84905;SDS011;75170;42.116;21.740;2024-01-06T04:05:53;140.98;;;81.15;;
84905;SDS011;75170;42.116;21.740;2024-01-06T04:08:19;135.40;;;77.45;;
84905;SDS011;75170;42.116;21.740;2024-01-06T04:10:45;128.52;;;73.53;;
84905;SDS011;75170;42.116;21.740;2024-01-06T04:13:11;114.85;;;63.28;;
84905;SDS011;75170;42.116;21.740;2024-01-06T04:15:37;109.22;;;62.10;;
84905;SDS011;75170;42.116;21.740;2024-01-06T04:18:04;114.07;;;61.28;;
84905;SDS011;75170;42.116;21.740;2024-01-06T04:20:31;95.35;;;54.60;;
84905;SDS011;75170;42.116;21.740;2024-01-06T04:22:57;75.00;;;43.92;;
84905;SDS011;75170;42.116;21.740;2024-01-06T04:25:23;94.63;;;53.45;;
84905;SDS011;75170;42.116;21.740;2024-01-06T04:27:49;90.22;;;54.83;;
84905;SDS011;75170;42.116;21.740;2024-01-06T04:30:15;98.80;;;58.08;;
84905;SDS011;75170;42.116;21.740;2024-01-06T04:32:42;103.38;;;58.78;;
84905;SDS011;75170;42.116;21.740;2024-01-06T04:35:09;90.20;;;54.03;;
84905;SDS011;75170;42.116;21.740;2024-01-06T04:37:35;94.70;;;54.50;;
84905;SDS011;75170;42.116;21.740;2024-01-06T04:40:01;90.57;;;55.60;;
84905;SDS011;75170;42.116;21.740;2024-01-06T04:42:27;88.60;;;51.03;;
84905;SDS011;75170;42.116;21.740;2024-01-06T04:44:53;89.82;;;54.20;;
84905;SDS011;75170;42.116;21.740;2024-01-06T04:47:19;96.38;;;56.92;;
84905;SDS011;75170;42.116;21.740;2024-01-06T04:49:46;96.30;;;54.85;;
84905;SDS011;75170;42.116;21.740;2024-01-06T04:52:12;84.47;;;47.53;;
84905;SDS011;75170;42.116;21.740;2024-01-06T04:54:38;79.53;;;48.38;;
84905;SDS011;75170;42.116;21.740;2024-01-06T04:57:04;85.40;;;47.97;;
84905;SDS011;75170;42.116;21.740;2024-01-06T04:59:30;93.72;;;53.90;;
84905;SDS011;75170;42.116;21.740;2024-01-06T05:01:59;76.15;;;48.03;;
84905;SDS011;75170;42.116;21.740;2024-01-06T05:04:25;78.82;;;44.42;;
84905;SDS011;75170;42.116;21.740;2024-01-06T05:06:51;97.25;;;54.03;;
84905;SDS011;75170;42.116;21.740;2024-01-06T05:09:18;98.10;;;57.90;;
84905;SDS011;75170;42.116;21.740;2024-01-06T05:11:45;83.65;;;48.33;;
84905;SDS011;75170;42.116;21.740;2024-01-06T05:14:11;88.28;;;47.08;;
84905;SDS011;75170;42.116;21.740;2024-01-06T05:16:37;92.28;;;54.85;;
84905;SDS011;75170;42.116;21.740;2024-01-06T05:19:04;88.22;;;52.45;;
84905;SDS011;75170;42.116;21.740;2024-01-06T05:21:30;89.05;;;51.33;;
84905;SDS011;75170;42.116;21.740;2024-01-06T05:23:57;77.78;;;44.90;;
84905;SDS011;75170;42.116;21.740;2024-01-06T05:26:23;87.80;;;51.00;;
84905;SDS011;75170;42.116;21.740;2024-01-06T05:28:49;88.53;;;49.47;;
84905;SDS011;75170;42.116;21.740;2024-01-06T05:31:16;76.07;;;46.97;;
84905;SDS011;75170;42.116;21.740;2024-01-06T05:33:42;79.75;;;47.35;;
84905;SDS011;75170;42.116;21.740;2024-01-06T05:36:08;88.43;;;53.22;;
84905;SDS011;75170;42.116;21.740;2024-01-06T05:38:34;92.88;;;54.60;;
84905;SDS011;75170;42.116;21.740;2024-01-06T05:41:00;91.85;;;54.53;;
84905;SDS011;75170;42.116;21.740;2024-01-06T05:43:26;96.03;;;55.03;;
84905;SDS011;75170;42.116;21.740;2024-01-06T05:45:52;96.85;;;53.05;;
84905;SDS011;75170;42.116;21.740;2024-01-06T05:48:18;86.70;;;47.83;;
84905;SDS011;75170;42.116;21.740;2024-01-06T05:50:44;91.10;;;50.65;;
84905;SDS011;75170;42.116;21.740;2024-01-06T05:53:11;86.47;;;49.70;;
84905;SDS011;75170;42.116;21.740;2024-01-06T05:58:05;82.25;;;44.88;;
84905;SDS011;75170;42.116;21.740;2024-01-06T06:00:31;75.88;;;42.08;;
84905;SDS011;75170;42.116;21.740;2024-01-06T06:02:57;75.32;;;41.75;;
84905;SDS011;75170;42.116;21.740;2024-01-06T06:05:23;71.97;;;39.35;;
84905;SDS011;75170;42.116;21.740;2024-01-06T06:07:49;75.78;;;39.63;;
84905;SDS011;75170;42.116;21.740;2024-01-06T06:10:16;65.05;;;37.90;;
84905;SDS011;75170;42.116;21.740;2024-01-06T06:12:44;62.85;;;35.38;;
84905;SDS011;75170;42.116;21.740;2024-01-06T06:15:10;62.58;;;35.85;;
84905;SDS011;75170;42.116;21.740;2024-01-06T06:17:36;56.70;;;31.23;;
84905;SDS011;75170;42.116;21.740;2024-01-06T06:20:03;54.13;;;31.98;;
84905;SDS011;75170;42.116;21.740;2024-01-06T06:22:31;50.25;;;29.33;;
84905;SDS011;75170;42.116;21.740;2024-01-06T06:24:57;47.47;;;27.17;;
84905;SDS011;75170;42.116;21.740;2024-01-06T06:27:24;46.40;;;25.30;;
84905;SDS011;75170;42.116;21.740;2024-01-06T06:29:50;42.20;;;24.75;;
84905;SDS011;75170;42.116;21.740;2024-01-06T06:32:16;44.75;;;26.80;;
84905;SDS011;75170;42.116;21.740;2024-01-06T06:34:42;47.20;;;26.90;;
84905;SDS011;75170;42.116;21.740;2024-01-06T06:37:08;46.38;;;27.02;;
84905;SDS011;75170;42.116;21.740;2024-01-06T06:39:35;82.38;;;46.05;;
84905;SDS011;75170;42.116;21.740;2024-01-06T06:42:01;64.20;;;35.78;;
84905;SDS011;75170;42.116;21.740;2024-01-06T06:44:28;100.60;;;54.97;;
84905;SDS011;75170;42.116;21.740;2024-01-06T06:46:56;87.68;;;49.13;;
84905;SDS011;75170;42.116;21.740;2024-01-06T06:49:23;81.30;;;48.65;;
84905;SDS011;75170;42.116;21.740;2024-01-06T06:51:49;87.00;;;50.92;;
84905;SDS011;75170;42.116;21.740;2024-01-06T06:54:15;102.25;;;55.25;;
84905;SDS011;75170;42.116;21.740;2024-01-06T06:56:44;115.85;;;59.45;;
84905;SDS011;75170;42.116;21.740;2024-01-06T06:59:10;98.97;;;55.40;;
84905;SDS011;75170;42.116;21.740;2024-01-06T07:01:37;92.95;;;53.63;;
84905;SDS011;75170;42.116;21.740;2024-01-06T07:04:03;92.22;;;54.15;;
84905;SDS011;75170;42.116;21.740;2024-01-06T07:06:29;100.35;;;55.10;;
84905;SDS011;75170;42.116;21.740;2024-01-06T07:08:56;111.47;;;62.45;;
84905;SDS011;75170;42.116;21.740;2024-01-06T07:11:22;100.20;;;59.65;;
84905;SDS011;75170;42.116;21.740;2024-01-06T07:13:49;131.43;;;70.25;;
84905;SDS011;75170;42.116;21.740;2024-01-06T07:16:15;146.60;;;82.07;;
84905;SDS011;75170;42.116;21.740;2024-01-06T07:18:41;141.48;;;80.93;;
84905;SDS011;75170;42.116;21.740;2024-01-06T07:21:07;132.73;;;79.15;;
84905;SDS011;75170;42.116;21.740;2024-01-06T07:23:33;153.38;;;90.90;;
84905;SDS011;75170;42.116;21.740;2024-01-06T07:25:59;149.80;;;88.10;;
84905;SDS011;75170;42.116;21.740;2024-01-06T07:28:26;149.23;;;91.10;;
84905;SDS011;75170;42.116;21.740;2024-01-06T07:30:52;143.82;;;89.28;;
84905;SDS011;75170;42.116;21.740;2024-01-06T07:33:20;153.85;;;93.03;;
84905;SDS011;75170;42.116;21.740;2024-01-06T07:35:46;134.90;;;83.82;;
84905;SDS011;75170;42.116;21.740;2024-01-06T07:38:12;139.02;;;87.32;;
84905;SDS011;75170;42.116;21.740;2024-01-06T07:40:39;167.15;;;103.05;;
84905;SDS011;75170;42.116;21.740;2024-01-06T07:43:05;158.00;;;97.05;;
84905;SDS011;75170;42.116;21.740;2024-01-06T07:45:32;204.18;;;120.97;;
84905;SDS011;75170;42.116;21.740;2024-01-06T07:47:58;197.32;;;112.40;;
84905;SDS011;75170;42.116;21.740;2024-01-06T07:50:24;302.52;;;142.68;;
84905;SDS011;75170;42.116;21.740;2024-01-06T07:52:50;289.30;;;134.32;;
84905;SDS011;75170;42.116;21.740;2024-01-06T07:55:17;260.27;;;129.82;;
84905;SDS011;75170;42.116;21.740;2024-01-06T07:57:44;244.70;;;124.28;;
84905;SDS011;75170;42.116;21.740;2024-01-06T08:00:10;251.30;;;137.52;;
84905;SDS011;75170;42.116;21.740;2024-01-06T08:02:39;272.20;;;139.20;;
84905;SDS011;75170;42.116;21.740;2024-01-06T08:05:06;325.35;;;141.40;;
84905;SDS011;75170;42.116;21.740;2024-01-06T08:07:32;289.10;;;137.98;;
84905;SDS011;75170;42.116;21.740;2024-01-06T08:09:58;269.00;;;131.50;;
84905;SDS011;75170;42.116;21.740;2024-01-06T08:12:25;188.98;;;109.10;;
84905;SDS011;75170;42.116;21.740;2024-01-06T08:14:51;246.40;;;135.73;;
84905;SDS011;75170;42.116;21.740;2024-01-06T08:17:17;176.68;;;103.00;;
84905;SDS011;75170;42.116;21.740;2024-01-06T08:19:43;191.85;;;117.30;;
84905;SDS011;75170;42.116;21.740;2024-01-06T08:22:12;166.60;;;101.45;;
84905;SDS011;75170;42.116;21.740;2024-01-06T08:24:38;158.80;;;93.20;;
84905;SDS011;75170;42.116;21.740;2024-01-06T08:27:04;119.28;;;70.38;;
84905;SDS011;75170;42.116;21.740;2024-01-06T08:29:30;131.48;;;76.53;;
84905;SDS011;75170;42.116;21.740;2024-01-06T08:31:56;134.88;;;79.22;;
84905;SDS011;75170;42.116;21.740;2024-01-06T08:34:23;119.15;;;70.38;;
84905;SDS011;75170;42.116;21.740;2024-01-06T08:36:49;136.35;;;77.78;;
84905;SDS011;75170;42.116;21.740;2024-01-06T08:39:16;135.98;;;83.40;;
84905;SDS011;75170;42.116;21.740;2024-01-06T08:41:42;167.98;;;101.72;;
84905;SDS011;75170;42.116;21.740;2024-01-06T08:44:08;146.30;;;87.53;;
84905;SDS011;75170;42.116;21.740;2024-01-06T08:46:34;158.23;;;97.30;;
84905;SDS011;75170;42.116;21.740;2024-01-06T08:49:00;150.48;;;92.97;;
84905;SDS011;75170;42.116;21.740;2024-01-06T08:51:26;155.07;;;97.68;;
84905;SDS011;75170;42.116;21.740;2024-01-06T08:53:52;159.50;;;99.75;;
84905;SDS011;75170;42.116;21.740;2024-01-06T08:56:18;174.95;;;108.70;;
84905;SDS011;75170;42.116;21.740;2024-01-06T08:58:44;184.35;;;113.68;;
84905;SDS011;75170;42.116;21.740;2024-01-06T09:01:11;223.70;;;141.50;;
84905;SDS011;75170;42.116;21.740;2024-01-06T09:03:38;271.58;;;157.60;;
84905;SDS011;75170;42.116;21.740;2024-01-06T09:06:04;228.73;;;135.90;;
84905;SDS011;75170;42.116;21.740;2024-01-06T09:08:31;223.23;;;141.50;;
84905;SDS011;75170;42.116;21.740;2024-01-06T09:10:57;229.88;;;140.55;;
84905;SDS011;75170;42.116;21.740;2024-01-06T09:13:23;226.05;;;139.23;;
84905;SDS011;75170;42.116;21.740;2024-01-06T09:15:50;224.20;;;139.30;;
84905;SDS011;75170;42.116;21.740;2024-01-06T09:18:16;229.85;;;141.55;;
84905;SDS011;75170;42.116;21.740;2024-01-06T09:20:43;220.38;;;140.07;;
84905;SDS011;75170;42.116;21.740;2024-01-06T09:23:09;216.57;;;138.30;;
84905;SDS011;75170;42.116;21.740;2024-01-06T09:25:38;220.07;;;135.20;;
84905;SDS011;75170;42.116;21.740;2024-01-06T09:28:05;168.57;;;101.90;;
84905;SDS011;75170;42.116;21.740;2024-01-06T09:30:31;166.63;;;105.18;;
84905;SDS011;75170;42.116;21.740;2024-01-06T09:32:57;160.55;;;103.35;;
84905;SDS011;75170;42.116;21.740;2024-01-06T09:35:23;150.13;;;97.07;;
84905;SDS011;75170;42.116;21.740;2024-01-06T09:37:49;144.32;;;91.53;;
84905;SDS011;75170;42.116;21.740;2024-01-06T09:40:19;189.80;;;115.57;;
84905;SDS011;75170;42.116;21.740;2024-01-06T09:42:46;152.82;;;94.93;;
84905;SDS011;75170;42.116;21.740;2024-01-06T09:45:12;163.57;;;101.38;;
84905;SDS011;75170;42.116;21.740;2024-01-06T09:47:38;165.65;;;101.47;;
84905;SDS011;75170;42.116;21.740;2024-01-06T09:50:06;136.15;;;82.85;;
84905;SDS011;75170;42.116;21.740;2024-01-06T09:52:38;124.50;;;76.18;;
84905;SDS011;75170;42.116;21.740;2024-01-06T09:55:05;113.93;;;73.07;;
84905;SDS011;75170;42.116;21.740;2024-01-06T09:57:35;115.70;;;71.60;;
84905;SDS011;75170;42.116;21.740;2024-01-06T10:00:01;136.23;;;82.60;;
84905;SDS011;75170;42.116;21.740;2024-01-06T10:02:27;98.32;;;59.47;;
84905;SDS011;75170;42.116;21.740;2024-01-06T10:04:56;134.60;;;79.72;;
84905;SDS011;75170;42.116;21.740;2024-01-06T10:07:23;156.68;;;89.57;;
84905;SDS011;75170;42.116;21.740;2024-01-06T10:09:50;133.95;;;79.28;;
84905;SDS011;75170;42.116;21.740;2024-01-06T10:12:17;116.60;;;74.38;;
84905;SDS011;75170;42.116;21.740;2024-01-06T10:14:43;100.30;;;62.05;;
84905;SDS011;75170;42.116;21.740;2024-01-06T10:17:09;112.18;;;70.85;;
84905;SDS011;75170;42.116;21.740;2024-01-06T10:19:36;115.32;;;73.75;;
84905;SDS011;75170;42.116;21.740;2024-01-06T10:22:03;213.48;;;126.40;;
84905;SDS011;75170;42.116;21.740;2024-01-06T10:24:30;139.85;;;94.82;;
84905;SDS011;75170;42.116;21.740;2024-01-06T10:26:56;128.32;;;81.53;;
84905;SDS011;75170;42.116;21.740;2024-01-06T10:29:24;125.95;;;81.55;;
84905;SDS011;75170;42.116;21.740;2024-01-06T10:31:51;134.35;;;83.38;;
84905;SDS011;75170;42.116;21.740;2024-01-06T10:34:17;142.32;;;89.22;;
84905;SDS011;75170;42.116;21.740;2024-01-06T10:36:43;130.45;;;84.70;;
84905;SDS011;75170;42.116;21.740;2024-01-06T10:39:09;139.73;;;89.03;;
84905;SDS011;75170;42.116;21.740;2024-01-06T10:41:36;125.78;;;83.72;;
84905;SDS011;75170;42.116;21.740;2024-01-06T10:44:04;149.27;;;92.30;;
84905;SDS011;75170;42.116;21.740;2024-01-06T10:46:31;152.60;;;95.72;;
84905;SDS011;75170;42.116;21.740;2024-01-06T10:48:58;170.45;;;106.47;;
84905;SDS011;75170;42.116;21.740;2024-01-06T10:51:25;181.70;;;111.00;;
84905;SDS011;75170;42.116;21.740;2024-01-06T10:53:51;175.43;;;105.85;;
84905;SDS011;75170;42.116;21.740;2024-01-06T10:56:17;188.93;;;116.40;;
84905;SDS011;75170;42.116;21.740;2024-01-06T10:58:45;211.50;;;125.57;;
84905;SDS011;75170;42.116;21.740;2024-01-06T11:01:13;189.15;;;119.82;;
84905;SDS011;75170;42.116;21.740;2024-01-06T11:03:39;203.93;;;121.68;;
84905;SDS011;75170;42.116;21.740;2024-01-06T11:06:06;206.43;;;123.53;;
84905;SDS011;75170;42.116;21.740;2024-01-06T11:08:35;191.95;;;115.70;;
84905;SDS011;75170;42.116;21.740;2024-01-06T11:13:28;167.07;;;103.72;;
84905;SDS011;75170;42.116;21.740;2024-01-06T11:15:54;144.48;;;93.07;;
84905;SDS011;75170;42.116;21.740;2024-01-06T11:18:30;155.57;;;99.82;;
84905;SDS011;75170;42.116;21.740;2024-01-06T11:23:42;171.35;;;105.32;;
84905;SDS011;75170;42.116;21.740;2024-01-06T11:26:08;159.27;;;99.10;;
84905;SDS011;75170;42.116;21.740;2024-01-06T11:28:47;158.32;;;100.40;;
84905;SDS011;75170;42.116;21.740;2024-01-06T11:31:13;179.30;;;111.28;;
84905;SDS011;75170;42.116;21.740;2024-01-06T11:33:43;181.15;;;116.47;;
84905;SDS011;75170;42.116;21.740;2024-01-06T11:36:09;185.30;;;116.55;;
84905;SDS011;75170;42.116;21.740;2024-01-06T11:38:39;201.93;;;127.45;;
84905;SDS011;75170;42.116;21.740;2024-01-06T11:41:07;204.73;;;127.10;;
84905;SDS011;75170;42.116;21.740;2024-01-06T11:43:35;217.15;;;130.90;;
84905;SDS011;75170;42.116;21.740;2024-01-06T11:46:07;198.73;;;124.53;;
84905;SDS011;75170;42.116;21.740;2024-01-06T11:48:34;188.82;;;120.75;;
84905;SDS011;75170;42.116;21.740;2024-01-06T11:51:01;169.15;;;117.10;;
84905;SDS011;75170;42.116;21.740;2024-01-06T11:53:29;162.75;;;107.05;;
84905;SDS011;75170;42.116;21.740;2024-01-06T11:55:55;125.68;;;81.72;;
84905;SDS011;75170;42.116;21.740;2024-01-06T11:58:22;131.45;;;85.82;;
84905;SDS011;75170;42.116;21.740;2024-01-06T12:00:55;120.68;;;80.93;;
84905;SDS011;75170;42.116;21.740;2024-01-06T12:03:24;122.93;;;82.10;;
84905;SDS011;75170;42.116;21.740;2024-01-06T12:06:01;112.22;;;73.72;;
84905;SDS011;75170;42.116;21.740;2024-01-06T12:08:27;109.97;;;73.32;;
84905;SDS011;75170;42.116;21.740;2024-01-06T12:11:03;81.03;;;54.78;;
84905;SDS011;75170;42.116;21.740;2024-01-06T12:13:30;97.60;;;61.17;;
84905;SDS011;75170;42.116;21.740;2024-01-06T12:15:59;133.55;;;85.90;;
84905;SDS011;75170;42.116;21.740;2024-01-06T12:18:25;103.90;;;66.07;;
84905;SDS011;75170;42.116;21.740;2024-01-06T12:20:52;109.05;;;68.28;;
84905;SDS011;75170;42.116;21.740;2024-01-06T12:23:25;93.22;;;59.30;;
84905;SDS011;75170;42.116;21.740;2024-01-06T12:25:53;93.40;;;59.65;;
84905;SDS011;75170;42.116;21.740;2024-01-06T12:28:19;102.05;;;63.45;;
84905;SDS011;75170;42.116;21.740;2024-01-06T12:30:45;76.07;;;48.55;;
84905;SDS011;75170;42.116;21.740;2024-01-06T12:33:11;71.47;;;45.92;;
84905;SDS011;75170;42.116;21.740;2024-01-06T12:35:39;70.90;;;45.83;;
84905;SDS011;75170;42.116;21.740;2024-01-06T12:38:08;70.38;;;46.22;;
84905;SDS011;75170;42.116;21.740;2024-01-06T12:40:37;70.40;;;44.90;;
84905;SDS011;75170;42.116;21.740;2024-01-06T12:43:04;72.85;;;45.63;;
84905;SDS011;75170;42.116;21.740;2024-01-06T12:45:30;81.55;;;51.15;;
84905;SDS011;75170;42.116;21.740;2024-01-06T12:47:57;80.88;;;52.20;;
84905;SDS011;75170;42.116;21.740;2024-01-06T12:50:23;85.35;;;52.45;;
84905;SDS011;75170;42.116;21.740;2024-01-06T12:52:49;86.13;;;54.55;;
84905;SDS011;75170;42.116;21.740;2024-01-06T12:55:15;94.43;;;56.67;;
84905;SDS011;75170;42.116;21.740;2024-01-06T12:57:42;77.38;;;48.75;;
84905;SDS011;75170;42.116;21.740;2024-01-06T13:00:08;88.30;;;50.55;;
84905;SDS011;75170;42.116;21.740;2024-01-06T13:02:37;83.53;;;50.15;;
84905;SDS011;75170;42.116;21.740;2024-01-06T13:05:04;86.25;;;52.47;;
84905;SDS011;75170;42.116;21.740;2024-01-06T13:07:30;85.70;;;51.47;;
84905;SDS011;75170;42.116;21.740;2024-01-06T13:09:57;79.28;;;49.83;;
84905;SDS011;75170;42.116;21.740;2024-01-06T13:12:23;68.32;;;43.05;;
84905;SDS011;75170;42.116;21.740;2024-01-06T13:14:49;74.57;;;46.83;;
84905;SDS011;75170;42.116;21.740;2024-01-06T13:17:16;64.05;;;38.47;;
84905;SDS011;75170;42.116;21.740;2024-01-06T13:19:42;76.60;;;47.42;;
84905;SDS011;75170;42.116;21.740;2024-01-06T13:22:09;73.65;;;47.20;;
84905;SDS011;75170;42.116;21.740;2024-01-06T13:24:35;75.57;;;46.20;;
84905;SDS011;75170;42.116;21.740;2024-01-06T13:27:01;72.63;;;44.17;;
84905;SDS011;75170;42.116;21.740;2024-01-06T13:29:28;66.00;;;40.38;;
84905;SDS011;75170;42.116;21.740;2024-01-06T13:31:55;50.75;;;32.05;;
84905;SDS011;75170;42.116;21.740;2024-01-06T13:34:22;56.72;;;38.22;;
84905;SDS011;75170;42.116;21.740;2024-01-06T13:36:48;58.00;;;36.25;;
84905;SDS011;75170;42.116;21.740;2024-01-06T13:39:14;58.33;;;40.13;;
84905;SDS011;75170;42.116;21.740;2024-01-06T13:41:48;68.20;;;44.92;;
84905;SDS011;75170;42.116;21.740;2024-01-06T13:44:25;80.15;;;50.42;;
84905;SDS011;75170;42.116;21.740;2024-01-06T13:46:52;76.78;;;46.25;;
84905;SDS011;75170;42.116;21.740;2024-01-06T13:49:20;114.05;;;67.03;;
84905;SDS011;75170;42.116;21.740;2024-01-06T13:51:46;98.35;;;57.58;;
84905;SDS011;75170;42.116;21.740;2024-01-06T13:54:13;81.57;;;51.22;;
84905;SDS011;75170;42.116;21.740;2024-01-06T13:56:39;119.63;;;66.25;;
84905;SDS011;75170;42.116;21.740;2024-01-06T13:59:05;106.35;;;60.08;;
84905;SDS011;75170;42.116;21.740;2024-01-06T14:01:32;137.40;;;76.82;;